Map

Track Data

SID SEASON NUMBER BASIN SUBBASIN NAME ISO_TIME NATURE LAT LON WMO_WIND WMO_PRES WMO_AGENCY TRACK_TYPE DIST2LAND LANDFALL IFLAG USA_AGENCY USA_ATCF_ID USA_LAT USA_LON USA_RECORD USA_STATUS USA_WIND USA_PRES USA_SSHS USA_R34_NE USA_R34_SE USA_R34_SW USA_R34_NW USA_R50_NE USA_R50_SE USA_R50_SW USA_R50_NW USA_R64_NE USA_R64_SE USA_R64_SW USA_R64_NW USA_POCI USA_ROCI USA_RMW USA_EYE TOKYO_LAT TOKYO_LON TOKYO_GRADE TOKYO_WIND TOKYO_PRES TOKYO_R50_DIR TOKYO_R50_LONG TOKYO_R50_SHORT TOKYO_R30_DIR TOKYO_R30_LONG TOKYO_R30_SHORT TOKYO_LAND CMA_LAT CMA_LON CMA_CAT CMA_WIND CMA_PRES HKO_LAT HKO_LON HKO_CAT HKO_WIND HKO_PRES NEWDELHI_LAT NEWDELHI_LON NEWDELHI_GRADE NEWDELHI_WIND NEWDELHI_PRES NEWDELHI_CI NEWDELHI_DP NEWDELHI_POCI REUNION_LAT REUNION_LON REUNION_TYPE REUNION_WIND REUNION_PRES REUNION_TNUM REUNION_CI REUNION_RMW REUNION_R34_NE REUNION_R34_SE REUNION_R34_SW REUNION_R34_NW REUNION_R50_NE REUNION_R50_SE REUNION_R50_SW REUNION_R50_NW REUNION_R64_NE REUNION_R64_SE REUNION_R64_SW REUNION_R64_NW BOM_LAT BOM_LON BOM_TYPE BOM_WIND BOM_PRES BOM_TNUM BOM_CI BOM_RMW BOM_R34_NE BOM_R34_SE BOM_R34_SW BOM_R34_NW BOM_R50_NE BOM_R50_SE BOM_R50_SW BOM_R50_NW BOM_R64_NE BOM_R64_SE BOM_R64_SW BOM_R64_NW BOM_ROCI BOM_POCI BOM_EYE BOM_POS_METHOD BOM_PRES_METHOD NADI_LAT NADI_LON NADI_CAT NADI_WIND NADI_PRES WELLINGTON_LAT WELLINGTON_LON WELLINGTON_WIND WELLINGTON_PRES DS824_LAT DS824_LON DS824_STAGE DS824_WIND DS824_PRES TD9636_LAT TD9636_LON TD9636_STAGE TD9636_WIND TD9636_PRES TD9635_LAT TD9635_LON TD9635_WIND TD9635_PRES TD9635_ROCI NEUMANN_LAT NEUMANN_LON NEUMANN_CLASS NEUMANN_WIND NEUMANN_PRES MLC_LAT MLC_LON MLC_CLASS MLC_WIND MLC_PRES USA_GUST BOM_GUST BOM_GUST_PER REUNION_GUST REUNION_GUST_PER USA_SEAHGT USA_SEARAD_NE USA_SEARAD_SE USA_SEARAD_SW USA_SEARAD_NW STORM_SPEED STORM_DIR
1995262N04161 1995 69 WP MM NOT_NAMED 1995-09-19 00:00:00 NR 3.50000 161.000 main 1212 1182 O_____________ jtwc_wp WP211995 3.50000 161.000 15 -1 14 275
1995262N04161 1995 69 WP MM NOT_NAMED 1995-09-19 03:00:00 NR 3.56510 160.308 main 1182 1130 P_____________ WP211995 3.56510 160.308 15 -1 14 274
1995262N04161 1995 69 WP MM NOT_NAMED 1995-09-19 06:00:00 NR 3.60000 159.600 main 1130 1080 O_____________ jtwc_wp WP211995 3.60000 159.600 15 -1 14 271
1995262N04161 1995 69 WP MM NOT_NAMED 1995-09-19 09:00:00 NR 3.59244 158.865 main 1080 1026 P_____________ WP211995 3.59244 158.865 15 -1 15 270
1995262N04161 1995 69 WP MM NOT_NAMED 1995-09-19 12:00:00 NR 3.60000 158.100 main 1026 981 O_____________ jtwc_wp WP211995 3.60000 158.100 15 -1 16 274
1995262N04161 1995 69 WP MM NOT_NAMED 1995-09-19 15:00:00 NR 3.69249 157.293 main 981 940 P_____________ WP211995 3.69249 157.293 15 -1 16 277
1995262N04161 1995 69 WP MM NOT_NAMED 1995-09-19 18:00:00 NR 3.80000 156.500 main 940 909 O_____________ jtwc_wp WP211995 3.80000 156.500 15 -1 15 277
1995262N04161 1995 69 WP MM NOT_NAMED 1995-09-19 21:00:00 NR 3.86487 155.800 main 909 870 P_____________ WP211995 3.86487 155.800 15 -1 14 274
1995262N04161 1995 69 WP MM NOT_NAMED 1995-09-20 00:00:00 NR 3.90000 155.100 main 870 835 O_____________ jtwc_wp WP211995 3.90000 155.100 15 -1 15 271
1995262N04161 1995 69 WP MM NOT_NAMED 1995-09-20 03:00:00 NR 3.89999 154.307 main 830 794 P_____________ WP211995 3.89999 154.307 15 -1 16 270
1995262N04161 1995 69 WP MM NOT_NAMED 1995-09-20 06:00:00 NR 3.90000 153.500 main 794 769 O_____________ jtwc_wp WP211995 3.90000 153.500 15 -1 16 272
1995262N04161 1995 69 WP MM NOT_NAMED 1995-09-20 09:00:00 NR 3.94991 152.743 main 766 760 P_____________ WP211995 3.94991 152.743 15 -1 15 274
1995262N04161 1995 69 WP MM NOT_NAMED 1995-09-20 12:00:00 NR 4.00000 152.000 main 760 752 O_____________ jtwc_wp WP211995 4.00000 152.000 15 -1 15 272
1995262N04161 1995 69 WP MM NOT_NAMED 1995-09-20 15:00:00 NR 3.99245 151.242 main 751 750 P_____________ WP211995 3.99245 151.242 15 -1 15 270
1995262N04161 1995 69 WP MM NOT_NAMED 1995-09-20 18:00:00 NR 4.00000 150.500 main 752 744 O_____________ jtwc_wp WP211995 4.00000 150.500 15 -1 15 274
1995262N04161 1995 69 WP MM NOT_NAMED 1995-09-20 21:00:00 NR 4.08492 149.793 main 744 729 P_____________ WP211995 4.08492 149.793 15 -1 14 278
1995262N04161 1995 69 WP MM NOT_NAMED 1995-09-21 00:00:00 NR 4.20000 149.100 main 730 722 O_____________ jtwc_wp WP211995 4.20000 149.100 15 -1 14 279
1995262N04161 1995 69 WP MM NOT_NAMED 1995-09-21 03:00:00 NR 4.30744 148.400 main 725 721 P_____________ WP211995 4.30744 148.400 15 -1 14 278
1995262N04161 1995 69 WP MM NOT_NAMED 1995-09-21 06:00:00 NR 4.40000 147.700 main 729 728 O_____________ jtwc_wp WP211995 4.40000 147.700 15 -1 14 276
1995262N04161 1995 69 WP MM NOT_NAMED 1995-09-21 09:00:00 NR 4.44993 147.000 main 728 728 P_____________ WP211995 4.44993 147.000 15 -1 14 274
1995262N04161 1995 69 WP MM NOT_NAMED 1995-09-21 12:00:00 NR 4.50000 146.300 main 740 740 O_____________ jtwc_wp WP211995 4.50000 146.300 15 -1 14 276
1995262N04161 1995 69 WP MM NOT_NAMED 1995-09-21 15:00:00 NR 4.59991 145.608 main 759 759 P_____________ WP211995 4.59991 145.608 15 -1 14 278
1995262N04161 1995 69 WP MM NOT_NAMED 1995-09-21 18:00:00 NR 4.70000 144.900 main 785 785 O_____________ jtwc_wp WP211995 4.70000 144.900 15 -1 15 276
1995262N04161 1995 69 WP MM NOT_NAMED 1995-09-21 21:00:00 NR 4.74994 144.157 main 807 807 P_____________ WP211995 4.74994 144.157 15 -1 15 274
1995262N04161 1995 69 WP MM NOT_NAMED 1995-09-22 00:00:00 NR 4.80000 143.400 main 851 851 O_____________ jtwc_wp WP211995 4.80000 143.400 15 -1 15 276
1995262N04161 1995 69 WP MM NOT_NAMED 1995-09-22 03:00:00 NR 4.89994 142.643 main 853 841 P_____________ WP211995 4.89994 142.643 15 -1 15 278
1995262N04161 1995 69 WP MM NOT_NAMED 1995-09-22 06:00:00 NR 5.00000 141.900 main 841 811 O_____________ jtwc_wp WP211995 5.00000 141.900 15 -1 14 276
1995262N04161 1995 69 WP MM NOT_NAMED 1995-09-22 09:00:00 NR 5.04988 141.200 main 811 793 P_____________ WP211995 5.04988 141.200 15 -1 14 274
1995262N04161 1995 69 WP MM NOT_NAMED 1995-09-22 12:00:00 NR 5.10000 140.500 main 793 779 O_____________ jtwc_wp WP211995 5.10000 140.500 15 -1 15 276
1995262N04161 1995 69 WP MM NOT_NAMED 1995-09-22 15:00:00 NR 5.19999 139.743 main 780 765 P_____________ WP211995 5.19999 139.743 15 -1 15 278
1995262N04161 1995 69 WP MM NOT_NAMED 1995-09-22 18:00:00 NR 5.30000 139.000 main 765 737 O_____________ jtwc_wp WP211995 5.30000 139.000 15 -1 14 276
1995262N04161 1995 69 WP MM NOT_NAMED 1995-09-22 21:00:00 NR 5.34988 138.335 main 733 722 P_____________ WP211995 5.34988 138.335 15 -1 13 274
1995262N04161 1995 69 WP MM NOT_NAMED 1995-09-23 00:00:00 NR 5.40000 137.700 main 722 709 O_____________ jtwc_wp WP211995 5.40000 137.700 15 -1 13 276
1995262N04161 1995 69 WP MM NOT_NAMED 1995-09-23 03:00:00 NR 5.48495 137.042 main 712 705 P_____________ WP211995 5.48495 137.042 15 -1 13 279
1995262N04161 1995 69 WP MM NOT_NAMED 1995-09-23 06:00:00 NR 5.60000 136.400 main 711 709 O_____________ jtwc_wp WP211995 5.60000 136.400 15 -1 13 281
1995262N04161 1995 69 WP MM NOT_NAMED 1995-09-23 09:00:00 NR 5.73494 135.785 main 717 717 P_____________ WP211995 5.73494 135.785 15 -1 12 284
1995262N04161 1995 69 WP MM NOT_NAMED 1995-09-23 12:00:00 NR 5.90000 135.200 main 740 740 O_____________ jtwc_wp WP211995 5.90000 135.200 15 -1 12 288
1995262N04161 1995 69 WP MM NOT_NAMED 1995-09-23 15:00:00 NR 6.09992 134.643 main 749 735 P_____________ WP211995 6.09992 134.643 15 -1 12 290
1995262N04161 1995 69 WP MM NOT_NAMED 1995-09-23 18:00:00 NR 6.30000 134.100 main 735 697 O_____________ jtwc_wp WP211995 6.30000 134.100 15 -1 12 288
1995262N04161 1995 69 WP MM NOT_NAMED 1995-09-23 21:00:00 NR 6.45746 133.542 main 696 662 P_____________ WP211995 6.45746 133.542 15 -1 11 285
1995262N04161 1995 69 WP MM NOT_NAMED 1995-09-24 00:00:00 NR 6.60000 133.000 main 662 631 O_____________ jtwc_wp WP211995 6.60000 133.000 15 -1 11 286
1995262N04161 1995 69 WP MM NOT_NAMED 1995-09-24 03:00:00 NR 6.74232 132.522 main 631 598 P_____________ WP211995 6.74232 132.522 15 -1 10 287
1995262N04161 1995 69 WP MM NOT_NAMED 1995-09-24 06:00:00 NR 6.90000 132.000 main 598 530 O_____________ jtwc_wp WP211995 6.90000 132.000 15 -1 12 286
1995262N04161 1995 69 WP MM NOT_NAMED 1995-09-24 09:00:00 NR 7.07745 131.345 main 519 441 P_____________ WP211995 7.07745 131.345 15 -1 14 286
1995262N04161 1995 69 WP MM NOT_NAMED 1995-09-24 12:00:00 NR 7.30000 130.600 main 441 353 O_____________ jtwc_wp WP211995 7.30000 130.600 15 -1 16 288
1995262N04161 1995 69 WP MM NOT_NAMED 1995-09-24 15:00:00 NR 7.58505 129.793 main 353 265 P_____________ WP211995 7.58505 129.793 15 -1 17 291
1995262N04161 1995 69 WP MM NOT_NAMED 1995-09-24 18:00:00 NR 7.90000 129.000 main 265 203 O_____________ jtwc_wp WP211995 7.90000 129.000 15 -1 16 293
1995262N04161 1995 69 WP MM NOT_NAMED 1995-09-24 21:00:00 NR 8.19221 128.342 main 195 144 P_____________ WP211995 8.19221 128.342 17 -1 14 295
1995262N04161 1995 69 WP MM NOT_NAMED 1995-09-25 00:00:00 NR 8.50000 127.700 main 144 87 O_____________ jtwc_wp WP211995 8.50000 127.700 20 -1 15 297
1995262N04161 1995 69 WP MM NOT_NAMED 1995-09-25 03:00:00 NR 8.84957 127.017 main 76 10 P_____________ WP211995 8.84957 127.017 22 -1 16 295
1995262N04161 1995 69 WP MM NOT_NAMED 1995-09-25 06:00:00 NR 9.20000 126.200 main 0 0 O_____________ jtwc_wp WP211995 9.20000 126.200 25 -1 20 290
1995262N04161 1995 69 WP MM NOT_NAMED 1995-09-25 09:00:00 NR 9.52252 125.160 main 31 0 P_____________ WP211995 9.52252 125.160 25 -1 23 285
1995262N04161 1995 69 WP MM NOT_NAMED 1995-09-25 12:00:00 NR 9.80000 124.000 main 0 0 O_____________ jtwc_wp WP211995 9.80000 124.000 25 -1 24 282
1995262N04161 1995 69 WP MM NOT_NAMED 1995-09-25 15:00:00 NR 10.0301 122.813 main 0 0 P_____________ WP211995 10.0301 122.813 25 -1 23 280
1995262N04161 1995 69 WP MM NOT_NAMED 1995-09-25 18:00:00 NR 10.2000 121.700 main 31 31 O_____________ jtwc_wp WP211995 10.2000 121.700 25 -1 20 278
1995262N04161 1995 69 WP MM NOT_NAMED 1995-09-25 21:00:00 NR 10.3071 120.767 main 120 34 P_____________ WP211995 10.3071 120.767 22 -1 17 277
1995262N04161 1995 69 WP MM NOT_NAMED 1995-09-26 00:00:00 NR 10.4000 120.000 main 34 0 O_____________ jtwc_wp WP211995 10.4000 120.000 20 -1 14 280
1995262N04161 1995 69 WP MM NOT_NAMED 1995-09-26 03:00:00 NR 10.5422 119.355 main 0 0 P_____________ WP211995 10.5422 119.355 20 -1 12 284
1995262N04161 1995 69 WP MM NOT_NAMED 1995-09-26 06:00:00 NR 10.7000 118.800 main 46 46 O_____________ jtwc_wp WP211995 10.7000 118.800 20 -1 11 286
1995262N04161 1995 69 WP MM NOT_NAMED 1995-09-26 09:00:00 NR 10.8499 118.235 main 101 101 P_____________ WP211995 10.8499 118.235 20 -1 11 286
1995262N04161 1995 69 WP MM NOT_NAMED 1995-09-26 12:00:00 NR 11.0000 117.700 main 156 156 O_____________ jtwc_wp WP211995 11.0000 117.700 20 -1 11 286
1995262N04161 1995 69 WP MM NOT_NAMED 1995-09-26 15:00:00 NR 11.1499 117.192 main 207 207 P_____________ WP211995 11.1499 117.192 20 -1 10 287
1995262N04161 1995 69 WP MM NOT_NAMED 1995-09-26 18:00:00 NR 11.3000 116.700 main 264 264 O_____________ jtwc_wp WP211995 11.3000 116.700 20 -1 10 287
1995262N04161 1995 69 WP MM NOT_NAMED 1995-09-26 21:00:00 NR 11.4499 116.200 main 302 302 P_____________ WP211995 11.4499 116.200 20 -1 10 287
1995262N04161 1995 69 WP MM NOT_NAMED 1995-09-27 00:00:00 NR 11.6000 115.700 main 353 353 O_____________ jtwc_wp WP211995 11.6000 115.700 20 -1 10 287
1995262N04161 1995 69 WP MM NOT_NAMED 1995-09-27 03:00:00 NR 11.7574 115.200 main 407 407 P_____________ WP211995 11.7574 115.200 20 -1 10 287
1995262N04161 1995 69 WP MM NOT_NAMED 1995-09-27 06:00:00 NR 11.9000 114.700 main 453 453 O_____________ jtwc_wp WP211995 11.9000 114.700 20 -1 10 284
1995262N04161 1995 69 WP MM NOT_NAMED 1995-09-27 09:00:00 NR 12.0074 114.207 main 500 459 P_____________ WP211995 12.0074 114.207 20 -1 10 282
1995262N04161 1995 69 WP MM NOT_NAMED 1995-09-27 12:00:00 NR 12.1000 113.700 main 459 404 O_____________ jtwc_wp WP211995 12.1000 113.700 20 -1 11 281
1995262N04161 1995 69 WP MM NOT_NAMED 1995-09-27 15:00:00 NR 12.2075 113.143 main 393 338 P_____________ WP211995 12.2075 113.143 22 -1 11 281
1995262N04161 1995 69 WP MM NOT_NAMED 1995-09-27 18:00:00 NR 12.3000 112.600 main 338 294 O_____________ jtwc_wp WP211995 12.3000 112.600 25 -1 10 279
1995262N04161 1995 69 WP MM NOT_NAMED 1995-09-27 21:00:00 NR 12.3574 112.127 main 283 240 P_____________ WP211995 12.3574 112.127 25 -1 9 276
1995262N04161 1995 69 WP MM NOT_NAMED 1995-09-28 00:00:00 NR 12.4000 111.700 main 240 196 O_____________ jtwc_wp WP211995 12.4000 111.700 25 -1 8 276
1995262N04161 1995 69 WP MM NOT_NAMED 1995-09-28 03:00:00 NR 12.4500 111.277 main 196 152 P_____________ WP211995 12.4500 111.277 25 -1 8 277
1995262N04161 1995 69 WP MM NOT_NAMED 1995-09-28 06:00:00 NR 12.5000 110.900 main 152 119 O_____________ jtwc_wp WP211995 12.5000 110.900 25 -1 7 278
1995262N04161 1995 69 WP MM NOT_NAMED 1995-09-28 09:00:00 NR 12.5424 110.585 main 119 86 P_____________ WP211995 12.5424 110.585 25 -1 6 280
1995262N04161 1995 69 WP MM NOT_NAMED 1995-09-28 12:00:00 NR 12.6000 110.300 main 86 55 O_____________ jtwc_wp WP211995 12.6000 110.300 25 -1 6 286
1995262N04161 1995 69 WP MM NOT_NAMED 1995-09-28 15:00:00 NR 12.6999 110.015 main 55 24 P_____________ WP211995 12.6999 110.015 25 -1 6 289
1995262N04161 1995 69 WP MM NOT_NAMED 1995-09-28 18:00:00 NR 12.8000 109.700 main 24 0 O_____________ jtwc_wp WP211995 12.8000 109.700 25 -1 7 284
1995262N04161 1995 69 WP MM NOT_NAMED 1995-09-28 21:00:00 NR 12.8627 109.320 main 0 0 P_____________ WP211995 12.8627 109.320 25 -1 8 277
1995262N04161 1995 69 WP MM NOT_NAMED 1995-09-29 00:00:00 NR 12.9000 108.900 main 0 O_____________ jtwc_wp WP211995 12.9000 108.900 25 -1 8 275

Digital Typhoon Data and Search

About IBTrACS Database

This database is a web-friendly format of International Best Track Archive for Climate Stewardship (IBTrACS), a global best track data archive curated by NOAA dating back to 1842.

Updated: 2021-10-25